sensor_id;sensor_type;location;lat;lon;timestamp;P1;durP1;ratioP1;P2;durP2;ratioP2
54171;SDS011;40076;52.354;4.970;2023-09-19T00:00:36;7.63;;;1.90;;
54171;SDS011;40076;52.354;4.970;2023-09-19T00:03:02;9.10;;;1.83;;
54171;SDS011;40076;52.354;4.970;2023-09-19T00:05:28;9.07;;;1.73;;
54171;SDS011;40076;52.354;4.970;2023-09-19T00:07:55;9.00;;;1.67;;
54171;SDS011;40076;52.354;4.970;2023-09-19T00:10:24;6.38;;;1.70;;
54171;SDS011;40076;52.354;4.970;2023-09-19T00:12:51;10.60;;;2.00;;
54171;SDS011;40076;52.354;4.970;2023-09-19T00:15:18;9.65;;;1.88;;
54171;SDS011;40076;52.354;4.970;2023-09-19T00:17:46;8.13;;;2.10;;
54171;SDS011;40076;52.354;4.970;2023-09-19T00:20:12;7.07;;;2.05;;
54171;SDS011;40076;52.354;4.970;2023-09-19T00:22:39;10.60;;;2.28;;
54171;SDS011;40076;52.354;4.970;2023-09-19T00:25:09;10.32;;;2.30;;
54171;SDS011;40076;52.354;4.970;2023-09-19T00:27:36;12.07;;;2.10;;
54171;SDS011;40076;52.354;4.970;2023-09-19T00:30:06;8.57;;;1.95;;
54171;SDS011;40076;52.354;4.970;2023-09-19T00:32:39;8.90;;;1.45;;
54171;SDS011;40076;52.354;4.970;2023-09-19T00:35:06;8.25;;;1.80;;
54171;SDS011;40076;52.354;4.970;2023-09-19T00:37:34;8.25;;;1.30;;
54171;SDS011;40076;52.354;4.970;2023-09-19T00:39:59;8.13;;;1.80;;
54171;SDS011;40076;52.354;4.970;2023-09-19T00:42:25;7.90;;;1.92;;
54171;SDS011;40076;52.354;4.970;2023-09-19T00:44:51;11.20;;;1.65;;
54171;SDS011;40076;52.354;4.970;2023-09-19T00:47:19;13.75;;;2.25;;
54171;SDS011;40076;52.354;4.970;2023-09-19T00:49:45;8.02;;;1.45;;
54171;SDS011;40076;52.354;4.970;2023-09-19T00:52:15;9.02;;;1.95;;
54171;SDS011;40076;52.354;4.970;2023-09-19T00:54:44;12.95;;;2.10;;
54171;SDS011;40076;52.354;4.970;2023-09-19T00:57:12;5.90;;;1.45;;
54171;SDS011;40076;52.354;4.970;2023-09-19T00:59:37;7.85;;;1.67;;
54171;SDS011;40076;52.354;4.970;2023-09-19T01:02:03;9.50;;;1.70;;
54171;SDS011;40076;52.354;4.970;2023-09-19T01:04:29;7.93;;;2.38;;
54171;SDS011;40076;52.354;4.970;2023-09-19T01:06:55;8.38;;;1.98;;
54171;SDS011;40076;52.354;4.970;2023-09-19T01:09:22;11.40;;;2.28;;
54171;SDS011;40076;52.354;4.970;2023-09-19T01:11:49;8.07;;;2.08;;
54171;SDS011;40076;52.354;4.970;2023-09-19T01:14:54;8.20;;;2.38;;
54171;SDS011;40076;52.354;4.970;2023-09-19T01:20:25;9.30;;;1.80;;
54171;SDS011;40076;52.354;4.970;2023-09-19T01:31:54;9.23;;;2.13;;
54171;SDS011;40076;52.354;4.970;2023-09-19T01:34:26;6.43;;;1.75;;
54171;SDS011;40076;52.354;4.970;2023-09-19T01:36:52;9.20;;;2.20;;
54171;SDS011;40076;52.354;4.970;2023-09-19T01:39:17;9.50;;;1.73;;
54171;SDS011;40076;52.354;4.970;2023-09-19T01:47:38;8.55;;;1.98;;
54171;SDS011;40076;52.354;4.970;2023-09-19T01:52:48;9.82;;;2.38;;
54171;SDS011;40076;52.354;4.970;2023-09-19T01:55:19;13.63;;;2.17;;
54171;SDS011;40076;52.354;4.970;2023-09-19T01:58:11;13.45;;;1.98;;
54171;SDS011;40076;52.354;4.970;2023-09-19T02:00:38;10.88;;;1.85;;
54171;SDS011;40076;52.354;4.970;2023-09-19T02:03:07;14.52;;;2.97;;
54171;SDS011;40076;52.354;4.970;2023-09-19T02:05:34;14.75;;;2.50;;
54171;SDS011;40076;52.354;4.970;2023-09-19T02:08:00;10.50;;;2.25;;
54171;SDS011;40076;52.354;4.970;2023-09-19T02:10:25;9.35;;;2.05;;
54171;SDS011;40076;52.354;4.970;2023-09-19T02:12:54;13.27;;;2.05;;
54171;SDS011;40076;52.354;4.970;2023-09-19T02:15:19;11.95;;;2.45;;
54171;SDS011;40076;52.354;4.970;2023-09-19T02:17:45;11.60;;;1.90;;
54171;SDS011;40076;52.354;4.970;2023-09-19T02:20:11;11.75;;;2.05;;
54171;SDS011;40076;52.354;4.970;2023-09-19T02:22:43;9.90;;;2.00;;
54171;SDS011;40076;52.354;4.970;2023-09-19T02:25:09;12.57;;;3.08;;
54171;SDS011;40076;52.354;4.970;2023-09-19T02:27:35;10.15;;;2.03;;
54171;SDS011;40076;52.354;4.970;2023-09-19T02:30:01;8.43;;;2.30;;
54171;SDS011;40076;52.354;4.970;2023-09-19T02:32:27;12.57;;;2.40;;
54171;SDS011;40076;52.354;4.970;2023-09-19T02:34:55;9.57;;;2.50;;
54171;SDS011;40076;52.354;4.970;2023-09-19T02:37:20;9.57;;;2.38;;
54171;SDS011;40076;52.354;4.970;2023-09-19T02:39:46;13.88;;;2.58;;
54171;SDS011;40076;52.354;4.970;2023-09-19T02:42:12;12.32;;;2.22;;
54171;SDS011;40076;52.354;4.970;2023-09-19T02:44:37;14.73;;;2.35;;
54171;SDS011;40076;52.354;4.970;2023-09-19T02:47:03;7.32;;;1.90;;
54171;SDS011;40076;52.354;4.970;2023-09-19T02:49:29;11.85;;;2.05;;
54171;SDS011;40076;52.354;4.970;2023-09-19T02:51:58;10.25;;;2.70;;
54171;SDS011;40076;52.354;4.970;2023-09-19T02:54:32;11.80;;;2.38;;
54171;SDS011;40076;52.354;4.970;2023-09-19T02:57:01;11.90;;;2.40;;
54171;SDS011;40076;52.354;4.970;2023-09-19T02:59:28;16.58;;;3.30;;
54171;SDS011;40076;52.354;4.970;2023-09-19T03:01:55;13.43;;;2.55;;
54171;SDS011;40076;52.354;4.970;2023-09-19T03:04:20;15.57;;;2.58;;
54171;SDS011;40076;52.354;4.970;2023-09-19T03:06:48;14.70;;;2.72;;
54171;SDS011;40076;52.354;4.970;2023-09-19T03:09:16;12.73;;;2.20;;
54171;SDS011;40076;52.354;4.970;2023-09-19T03:11:41;11.65;;;2.28;;
54171;SDS011;40076;52.354;4.970;2023-09-19T03:14:07;14.32;;;2.17;;
54171;SDS011;40076;52.354;4.970;2023-09-19T03:16:35;9.93;;;2.15;;
54171;SDS011;40076;52.354;4.970;2023-09-19T03:19:02;10.13;;;2.28;;
54171;SDS011;40076;52.354;4.970;2023-09-19T03:21:28;13.23;;;2.42;;
54171;SDS011;40076;52.354;4.970;2023-09-19T03:23:56;10.80;;;2.72;;
54171;SDS011;40076;52.354;4.970;2023-09-19T03:26:22;12.57;;;2.20;;
54171;SDS011;40076;52.354;4.970;2023-09-19T03:28:47;15.63;;;2.70;;
54171;SDS011;40076;52.354;4.970;2023-09-19T03:31:13;25.85;;;3.17;;
54171;SDS011;40076;52.354;4.970;2023-09-19T03:33:38;11.07;;;2.22;;
54171;SDS011;40076;52.354;4.970;2023-09-19T03:36:04;7.22;;;2.00;;
54171;SDS011;40076;52.354;4.970;2023-09-19T03:38:30;9.02;;;2.15;;
54171;SDS011;40076;52.354;4.970;2023-09-19T03:40:56;11.95;;;2.13;;
54171;SDS011;40076;52.354;4.970;2023-09-19T03:43:22;12.20;;;2.00;;
54171;SDS011;40076;52.354;4.970;2023-09-19T03:45:47;10.65;;;2.00;;
54171;SDS011;40076;52.354;4.970;2023-09-19T03:48:13;9.20;;;2.25;;
54171;SDS011;40076;52.354;4.970;2023-09-19T03:50:39;15.05;;;2.65;;
54171;SDS011;40076;52.354;4.970;2023-09-19T03:53:05;11.18;;;2.13;;
54171;SDS011;40076;52.354;4.970;2023-09-19T03:55:32;13.32;;;2.10;;
54171;SDS011;40076;52.354;4.970;2023-09-19T03:58:00;13.82;;;2.67;;
54171;SDS011;40076;52.354;4.970;2023-09-19T04:00:26;11.75;;;2.75;;
54171;SDS011;40076;52.354;4.970;2023-09-19T04:02:54;11.57;;;2.72;;
54171;SDS011;40076;52.354;4.970;2023-09-19T04:05:21;10.73;;;1.80;;
54171;SDS011;40076;52.354;4.970;2023-09-19T04:07:50;12.07;;;1.90;;
54171;SDS011;40076;52.354;4.970;2023-09-19T04:10:15;12.50;;;2.63;;
54171;SDS011;40076;52.354;4.970;2023-09-19T04:12:51;12.25;;;2.20;;
54171;SDS011;40076;52.354;4.970;2023-09-19T04:15:20;14.68;;;2.90;;
54171;SDS011;40076;52.354;4.970;2023-09-19T04:17:48;15.75;;;2.50;;
54171;SDS011;40076;52.354;4.970;2023-09-19T04:20:14;12.07;;;1.85;;
54171;SDS011;40076;52.354;4.970;2023-09-19T04:22:40;12.70;;;2.20;;
54171;SDS011;40076;52.354;4.970;2023-09-19T04:25:09;14.30;;;2.80;;
54171;SDS011;40076;52.354;4.970;2023-09-19T04:27:35;12.38;;;2.35;;
54171;SDS011;40076;52.354;4.970;2023-09-19T04:30:00;11.52;;;2.22;;
54171;SDS011;40076;52.354;4.970;2023-09-19T04:32:28;11.77;;;1.95;;
54171;SDS011;40076;52.354;4.970;2023-09-19T04:34:54;10.43;;;1.80;;
54171;SDS011;40076;52.354;4.970;2023-09-19T04:37:24;12.55;;;2.75;;
54171;SDS011;40076;52.354;4.970;2023-09-19T04:39:50;12.20;;;2.13;;
54171;SDS011;40076;52.354;4.970;2023-09-19T04:42:16;10.13;;;1.95;;
54171;SDS011;40076;52.354;4.970;2023-09-19T04:44:42;7.72;;;1.45;;
54171;SDS011;40076;52.354;4.970;2023-09-19T04:47:08;12.38;;;2.05;;
54171;SDS011;40076;52.354;4.970;2023-09-19T04:49:34;9.93;;;2.00;;
54171;SDS011;40076;52.354;4.970;2023-09-19T04:52:00;12.35;;;2.88;;
54171;SDS011;40076;52.354;4.970;2023-09-19T04:54:25;11.43;;;2.95;;
54171;SDS011;40076;52.354;4.970;2023-09-19T04:56:52;12.38;;;2.33;;
54171;SDS011;40076;52.354;4.970;2023-09-19T04:59:17;11.90;;;2.63;;
54171;SDS011;40076;52.354;4.970;2023-09-19T05:01:43;16.23;;;2.97;;
54171;SDS011;40076;52.354;4.970;2023-09-19T05:04:08;10.07;;;1.92;;
54171;SDS011;40076;52.354;4.970;2023-09-19T05:06:34;11.75;;;2.83;;
54171;SDS011;40076;52.354;4.970;2023-09-19T05:09:00;11.27;;;2.00;;
54171;SDS011;40076;52.354;4.970;2023-09-19T05:11:26;12.45;;;2.30;;
54171;SDS011;40076;52.354;4.970;2023-09-19T05:13:52;10.30;;;2.25;;
54171;SDS011;40076;52.354;4.970;2023-09-19T05:16:20;8.15;;;2.08;;
54171;SDS011;40076;52.354;4.970;2023-09-19T05:18:47;9.48;;;2.42;;
54171;SDS011;40076;52.354;4.970;2023-09-19T05:21:12;8.48;;;1.67;;
54171;SDS011;40076;52.354;4.970;2023-09-19T05:23:38;11.02;;;2.72;;
54171;SDS011;40076;52.354;4.970;2023-09-19T05:26:03;10.32;;;2.10;;
54171;SDS011;40076;52.354;4.970;2023-09-19T05:28:30;13.55;;;3.05;;
54171;SDS011;40076;52.354;4.970;2023-09-19T05:30:57;11.77;;;2.20;;
54171;SDS011;40076;52.354;4.970;2023-09-19T05:33:26;9.82;;;2.40;;
54171;SDS011;40076;52.354;4.970;2023-09-19T05:35:52;15.23;;;2.72;;
54171;SDS011;40076;52.354;4.970;2023-09-19T05:38:18;11.40;;;2.30;;
54171;SDS011;40076;52.354;4.970;2023-09-19T05:40:45;13.30;;;2.78;;
54171;SDS011;40076;52.354;4.970;2023-09-19T05:43:11;9.38;;;2.42;;
54171;SDS011;40076;52.354;4.970;2023-09-19T05:45:36;12.18;;;2.42;;
54171;SDS011;40076;52.354;4.970;2023-09-19T05:48:09;9.80;;;1.85;;
54171;SDS011;40076;52.354;4.970;2023-09-19T05:50:39;12.68;;;2.45;;
54171;SDS011;40076;52.354;4.970;2023-09-19T05:53:05;12.50;;;2.53;;
54171;SDS011;40076;52.354;4.970;2023-09-19T05:55:34;14.30;;;2.42;;
54171;SDS011;40076;52.354;4.970;2023-09-19T05:58:03;10.10;;;2.10;;
54171;SDS011;40076;52.354;4.970;2023-09-19T06:00:29;13.65;;;2.60;;
54171;SDS011;40076;52.354;4.970;2023-09-19T06:02:57;11.25;;;2.75;;
54171;SDS011;40076;52.354;4.970;2023-09-19T06:05:24;14.57;;;2.88;;
54171;SDS011;40076;52.354;4.970;2023-09-19T06:10:25;11.07;;;2.45;;
54171;SDS011;40076;52.354;4.970;2023-09-19T06:12:51;10.85;;;2.45;;
54171;SDS011;40076;52.354;4.970;2023-09-19T06:15:16;16.42;;;2.20;;
54171;SDS011;40076;52.354;4.970;2023-09-19T06:18:02;13.80;;;2.95;;
54171;SDS011;40076;52.354;4.970;2023-09-19T06:20:30;10.15;;;2.35;;
54171;SDS011;40076;52.354;4.970;2023-09-19T06:22:56;13.15;;;2.42;;
54171;SDS011;40076;52.354;4.970;2023-09-19T06:25:22;10.57;;;2.30;;
54171;SDS011;40076;52.354;4.970;2023-09-19T06:27:47;8.82;;;2.28;;
54171;SDS011;40076;52.354;4.970;2023-09-19T06:30:18;10.95;;;2.33;;
54171;SDS011;40076;52.354;4.970;2023-09-19T06:32:44;13.85;;;2.15;;
54171;SDS011;40076;52.354;4.970;2023-09-19T06:35:10;10.77;;;2.53;;
54171;SDS011;40076;52.354;4.970;2023-09-19T06:37:39;11.75;;;2.53;;
54171;SDS011;40076;52.354;4.970;2023-09-19T06:42:38;13.38;;;2.22;;
54171;SDS011;40076;52.354;4.970;2023-09-19T06:45:04;10.85;;;2.65;;
54171;SDS011;40076;52.354;4.970;2023-09-19T06:47:30;18.40;;;2.65;;
54171;SDS011;40076;52.354;4.970;2023-09-19T06:49:56;8.45;;;2.17;;
54171;SDS011;40076;52.354;4.970;2023-09-19T06:52:21;14.85;;;2.22;;
54171;SDS011;40076;52.354;4.970;2023-09-19T06:54:47;11.52;;;2.90;;
54171;SDS011;40076;52.354;4.970;2023-09-19T06:57:15;13.35;;;3.00;;
54171;SDS011;40076;52.354;4.970;2023-09-19T06:59:41;13.25;;;2.45;;
54171;SDS011;40076;52.354;4.970;2023-09-19T07:02:06;14.45;;;2.70;;
54171;SDS011;40076;52.354;4.970;2023-09-19T07:04:38;18.13;;;2.63;;
54171;SDS011;40076;52.354;4.970;2023-09-19T07:07:04;16.73;;;2.97;;
54171;SDS011;40076;52.354;4.970;2023-09-19T07:09:33;11.82;;;2.72;;
54171;SDS011;40076;52.354;4.970;2023-09-19T07:12:01;15.48;;;2.83;;
54171;SDS011;40076;52.354;4.970;2023-09-19T07:14:27;15.55;;;2.83;;
54171;SDS011;40076;52.354;4.970;2023-09-19T07:16:55;13.55;;;3.17;;
54171;SDS011;40076;52.354;4.970;2023-09-19T07:19:21;13.65;;;2.53;;
54171;SDS011;40076;52.354;4.970;2023-09-19T07:21:46;13.82;;;2.88;;
54171;SDS011;40076;52.354;4.970;2023-09-19T07:24:15;13.18;;;2.85;;
54171;SDS011;40076;52.354;4.970;2023-09-19T07:26:46;18.65;;;2.90;;
54171;SDS011;40076;52.354;4.970;2023-09-19T07:29:14;14.35;;;3.17;;
54171;SDS011;40076;52.354;4.970;2023-09-19T07:31:40;11.13;;;2.80;;
54171;SDS011;40076;52.354;4.970;2023-09-19T07:34:09;14.45;;;3.25;;
54171;SDS011;40076;52.354;4.970;2023-09-19T07:36:35;18.95;;;3.25;;
54171;SDS011;40076;52.354;4.970;2023-09-19T07:39:02;15.32;;;3.63;;
54171;SDS011;40076;52.354;4.970;2023-09-19T07:41:32;14.23;;;2.35;;
54171;SDS011;40076;52.354;4.970;2023-09-19T07:43:58;19.20;;;3.42;;
54171;SDS011;40076;52.354;4.970;2023-09-19T07:46:26;11.70;;;2.58;;
54171;SDS011;40076;52.354;4.970;2023-09-19T07:48:52;13.20;;;2.78;;
54171;SDS011;40076;52.354;4.970;2023-09-19T07:51:21;22.65;;;3.42;;
54171;SDS011;40076;52.354;4.970;2023-09-19T07:53:50;11.50;;;2.38;;
54171;SDS011;40076;52.354;4.970;2023-09-19T07:56:18;17.80;;;3.03;;
54171;SDS011;40076;52.354;4.970;2023-09-19T07:58:48;13.38;;;3.25;;
54171;SDS011;40076;52.354;4.970;2023-09-19T08:01:29;13.00;;;3.10;;
54171;SDS011;40076;52.354;4.970;2023-09-19T08:03:54;15.90;;;3.22;;
54171;SDS011;40076;52.354;4.970;2023-09-19T08:06:22;19.13;;;2.88;;
54171;SDS011;40076;52.354;4.970;2023-09-19T08:08:50;13.18;;;3.08;;
54171;SDS011;40076;52.354;4.970;2023-09-19T08:11:19;15.75;;;3.33;;
54171;SDS011;40076;52.354;4.970;2023-09-19T08:13:48;16.80;;;2.95;;
54171;SDS011;40076;52.354;4.970;2023-09-19T08:16:14;16.45;;;3.13;;
54171;SDS011;40076;52.354;4.970;2023-09-19T08:18:42;15.82;;;2.47;;
54171;SDS011;40076;52.354;4.970;2023-09-19T08:21:15;11.98;;;2.50;;
54171;SDS011;40076;52.354;4.970;2023-09-19T08:23:40;16.85;;;3.10;;
54171;SDS011;40076;52.354;4.970;2023-09-19T08:26:11;13.15;;;2.85;;
54171;SDS011;40076;52.354;4.970;2023-09-19T08:28:36;19.90;;;2.67;;
54171;SDS011;40076;52.354;4.970;2023-09-19T08:31:05;15.18;;;2.95;;
54171;SDS011;40076;52.354;4.970;2023-09-19T08:33:35;14.20;;;3.13;;
54171;SDS011;40076;52.354;4.970;2023-09-19T08:36:04;20.15;;;3.70;;
54171;SDS011;40076;52.354;4.970;2023-09-19T08:38:35;18.95;;;3.03;;
54171;SDS011;40076;52.354;4.970;2023-09-19T08:41:21;19.08;;;3.88;;
54171;SDS011;40076;52.354;4.970;2023-09-19T08:43:59;18.65;;;3.20;;
54171;SDS011;40076;52.354;4.970;2023-09-19T08:46:34;18.92;;;3.47;;
54171;SDS011;40076;52.354;4.970;2023-09-19T08:49:53;16.45;;;3.97;;
54171;SDS011;40076;52.354;4.970;2023-09-19T08:56:07;19.70;;;3.05;;
54171;SDS011;40076;52.354;4.970;2023-09-19T08:58:39;14.77;;;3.25;;
54171;SDS011;40076;52.354;4.970;2023-09-19T09:01:28;14.93;;;2.95;;
54171;SDS011;40076;52.354;4.970;2023-09-19T09:06:51;16.75;;;2.70;;
54171;SDS011;40076;52.354;4.970;2023-09-19T09:09:29;19.33;;;3.65;;
54171;SDS011;40076;52.354;4.970;2023-09-19T09:11:55;19.25;;;2.97;;
54171;SDS011;40076;52.354;4.970;2023-09-19T09:14:25;13.88;;;3.03;;
54171;SDS011;40076;52.354;4.970;2023-09-19T09:16:51;11.32;;;3.35;;
54171;SDS011;40076;52.354;4.970;2023-09-19T09:19:16;14.98;;;4.15;;
54171;SDS011;40076;52.354;4.970;2023-09-19T09:21:49;12.40;;;3.05;;
54171;SDS011;40076;52.354;4.970;2023-09-19T09:24:28;12.82;;;2.67;;
54171;SDS011;40076;52.354;4.970;2023-09-19T09:26:56;15.38;;;3.30;;
54171;SDS011;40076;52.354;4.970;2023-09-19T09:29:39;13.68;;;3.38;;
54171;SDS011;40076;52.354;4.970;2023-09-19T09:32:23;17.40;;;3.08;;
54171;SDS011;40076;52.354;4.970;2023-09-19T09:34:56;15.57;;;3.30;;
54171;SDS011;40076;52.354;4.970;2023-09-19T09:37:23;16.63;;;3.13;;
54171;SDS011;40076;52.354;4.970;2023-09-19T09:39:52;13.20;;;2.92;;
54171;SDS011;40076;52.354;4.970;2023-09-19T09:42:54;16.50;;;3.30;;
54171;SDS011;40076;52.354;4.970;2023-09-19T09:45:21;15.77;;;3.15;;
54171;SDS011;40076;52.354;4.970;2023-09-19T09:48:02;15.52;;;3.53;;
54171;SDS011;40076;52.354;4.970;2023-09-19T09:50:45;16.83;;;3.10;;
54171;SDS011;40076;52.354;4.970;2023-09-19T09:55:56;15.70;;;3.25;;
54171;SDS011;40076;52.354;4.970;2023-09-19T09:58:35;16.65;;;2.92;;
54171;SDS011;40076;52.354;4.970;2023-09-19T10:01:02;14.93;;;2.85;;
54171;SDS011;40076;52.354;4.970;2023-09-19T10:03:40;16.38;;;3.17;;
54171;SDS011;40076;52.354;4.970;2023-09-19T10:06:13;16.33;;;3.45;;
54171;SDS011;40076;52.354;4.970;2023-09-19T10:08:59;18.50;;;3.63;;
54171;SDS011;40076;52.354;4.970;2023-09-19T10:11:31;13.32;;;3.20;;
54171;SDS011;40076;52.354;4.970;2023-09-19T10:13:58;19.90;;;3.45;;
54171;SDS011;40076;52.354;4.970;2023-09-19T10:16:31;19.05;;;3.72;;
54171;SDS011;40076;52.354;4.970;2023-09-19T10:18:59;15.27;;;3.13;;
54171;SDS011;40076;52.354;4.970;2023-09-19T10:21:28;15.95;;;3.63;;
54171;SDS011;40076;52.354;4.970;2023-09-19T10:23:55;23.17;;;3.45;;
54171;SDS011;40076;52.354;4.970;2023-09-19T10:26:24;14.68;;;3.00;;
54171;SDS011;40076;52.354;4.970;2023-09-19T10:28:56;11.43;;;2.72;;
54171;SDS011;40076;52.354;4.970;2023-09-19T10:31:22;19.15;;;3.00;;
54171;SDS011;40076;52.354;4.970;2023-09-19T10:33:50;19.25;;;4.03;;
54171;SDS011;40076;52.354;4.970;2023-09-19T10:36:18;11.07;;;2.72;;
54171;SDS011;40076;52.354;4.970;2023-09-19T10:38:46;12.10;;;2.70;;
54171;SDS011;40076;52.354;4.970;2023-09-19T10:41:15;11.05;;;3.00;;
54171;SDS011;40076;52.354;4.970;2023-09-19T10:43:42;9.45;;;2.20;;
54171;SDS011;40076;52.354;4.970;2023-09-19T10:46:11;11.50;;;2.80;;
54171;SDS011;40076;52.354;4.970;2023-09-19T10:48:38;12.50;;;2.55;;
54171;SDS011;40076;52.354;4.970;2023-09-19T10:51:18;12.65;;;2.50;;
54171;SDS011;40076;52.354;4.970;2023-09-19T10:53:58;13.02;;;3.00;;
54171;SDS011;40076;52.354;4.970;2023-09-19T10:56:36;14.70;;;2.83;;
54171;SDS011;40076;52.354;4.970;2023-09-19T10:59:13;9.70;;;2.05;;
54171;SDS011;40076;52.354;4.970;2023-09-19T11:01:47;9.57;;;1.92;;
54171;SDS011;40076;52.354;4.970;2023-09-19T11:14:54;9.38;;;2.20;;
54171;SDS011;40076;52.354;4.970;2023-09-19T11:30:47;9.48;;;2.17;;
54171;SDS011;40076;52.354;4.970;2023-09-19T11:33:20;7.55;;;1.75;;
54171;SDS011;40076;52.354;4.970;2023-09-19T11:36:01;7.80;;;1.80;;
54171;SDS011;40076;52.354;4.970;2023-09-19T11:39:10;11.30;;;2.03;;
54171;SDS011;40076;52.354;4.970;2023-09-19T11:49:30;14.40;;;2.50;;
54171;SDS011;40076;52.354;4.970;2023-09-19T11:51:58;9.30;;;2.30;;
54171;SDS011;40076;52.354;4.970;2023-09-19T11:54:31;12.60;;;2.53;;
54171;SDS011;40076;52.354;4.970;2023-09-19T11:57:00;8.60;;;1.70;;
54171;SDS011;40076;52.354;4.970;2023-09-19T11:59:29;10.40;;;1.83;;
54171;SDS011;40076;52.354;4.970;2023-09-19T12:02:07;8.30;;;1.80;;
54171;SDS011;40076;52.354;4.970;2023-09-19T12:04:44;11.10;;;2.08;;
54171;SDS011;40076;52.354;4.970;2023-09-19T12:07:15;8.88;;;1.70;;
54171;SDS011;40076;52.354;4.970;2023-09-19T12:12:27;12.05;;;1.92;;
54171;SDS011;40076;52.354;4.970;2023-09-19T12:15:06;5.47;;;1.70;;
54171;SDS011;40076;52.354;4.970;2023-09-19T12:17:36;8.85;;;1.73;;
54171;SDS011;40076;52.354;4.970;2023-09-19T12:20:08;9.82;;;1.80;;
54171;SDS011;40076;52.354;4.970;2023-09-19T12:22:44;5.30;;;2.13;;
54171;SDS011;40076;52.354;4.970;2023-09-19T12:25:26;12.05;;;2.78;;
54171;SDS011;40076;52.354;4.970;2023-09-19T12:28:08;7.25;;;1.70;;
54171;SDS011;40076;52.354;4.970;2023-09-19T12:31:07;11.05;;;2.22;;
54171;SDS011;40076;52.354;4.970;2023-09-19T12:43:35;9.27;;;2.92;;
54171;SDS011;40076;52.354;4.970;2023-09-19T12:46:29;14.18;;;2.20;;
54171;SDS011;40076;52.354;4.970;2023-09-19T12:49:34;7.75;;;1.70;;
54171;SDS011;40076;52.354;4.970;2023-09-19T12:55:24;6.35;;;1.60;;
54171;SDS011;40076;52.354;4.970;2023-09-19T13:00:51;7.68;;;2.05;;
54171;SDS011;40076;52.354;4.970;2023-09-19T13:46:54;7.20;;;1.40;;
54171;SDS011;40076;52.354;4.970;2023-09-19T13:50:04;6.70;;;1.63;;
54171;SDS011;40076;52.354;4.970;2023-09-19T13:59:16;5.30;;;1.77;;
54171;SDS011;40076;52.354;4.970;2023-09-19T14:01:49;9.07;;;1.77;;
54171;SDS011;40076;52.354;4.970;2023-09-19T14:08:09;7.60;;;2.17;;
54171;SDS011;40076;52.354;4.970;2023-09-19T14:10:40;11.48;;;2.90;;
54171;SDS011;40076;52.354;4.970;2023-09-19T14:13:09;9.50;;;2.70;;
54171;SDS011;40076;52.354;4.970;2023-09-19T14:15:43;11.20;;;2.30;;
54171;SDS011;40076;52.354;4.970;2023-09-19T14:18:20;9.55;;;2.70;;
54171;SDS011;40076;52.354;4.970;2023-09-19T14:21:05;8.90;;;2.75;;
54171;SDS011;40076;52.354;4.970;2023-09-19T14:23:37;11.50;;;2.95;;
54171;SDS011;40076;52.354;4.970;2023-09-19T14:26:14;10.50;;;3.38;;
54171;SDS011;40076;52.354;4.970;2023-09-19T14:29:11;11.15;;;2.80;;
54171;SDS011;40076;52.354;4.970;2023-09-19T14:31:40;10.00;;;2.35;;
54171;SDS011;40076;52.354;4.970;2023-09-19T14:34:12;10.85;;;3.40;;
54171;SDS011;40076;52.354;4.970;2023-09-19T14:36:42;13.27;;;2.83;;
54171;SDS011;40076;52.354;4.970;2023-09-19T14:42:25;11.18;;;3.30;;
54171;SDS011;40076;52.354;4.970;2023-09-19T14:45:11;12.02;;;3.13;;
54171;SDS011;40076;52.354;4.970;2023-09-19T14:47:45;16.55;;;3.25;;
54171;SDS011;40076;52.354;4.970;2023-09-19T14:50:11;9.82;;;2.83;;
54171;SDS011;40076;52.354;4.970;2023-09-19T14:52:37;8.35;;;2.85;;
54171;SDS011;40076;52.354;4.970;2023-09-19T14:55:05;11.52;;;3.25;;
54171;SDS011;40076;52.354;4.970;2023-09-19T14:57:40;10.93;;;3.13;;
54171;SDS011;40076;52.354;4.970;2023-09-19T15:00:30;8.90;;;2.40;;
54171;SDS011;40076;52.354;4.970;2023-09-19T15:03:09;14.35;;;2.78;;
54171;SDS011;40076;52.354;4.970;2023-09-19T15:05:38;13.88;;;3.13;;
54171;SDS011;40076;52.354;4.970;2023-09-19T15:08:04;11.52;;;2.50;;
54171;SDS011;40076;52.354;4.970;2023-09-19T15:13:29;13.23;;;3.20;;
54171;SDS011;40076;52.354;4.970;2023-09-19T15:16:01;12.15;;;2.65;;
54171;SDS011;40076;52.354;4.970;2023-09-19T15:18:46;8.23;;;2.53;;
54171;SDS011;40076;52.354;4.970;2023-09-19T15:21:39;13.13;;;4.18;;
54171;SDS011;40076;52.354;4.970;2023-09-19T15:24:26;11.45;;;2.80;;
54171;SDS011;40076;52.354;4.970;2023-09-19T15:26:52;11.07;;;2.95;;
54171;SDS011;40076;52.354;4.970;2023-09-19T15:29:23;12.98;;;3.15;;
54171;SDS011;40076;52.354;4.970;2023-09-19T15:31:56;12.40;;;2.92;;
54171;SDS011;40076;52.354;4.970;2023-09-19T15:34:28;10.57;;;3.17;;
54171;SDS011;40076;52.354;4.970;2023-09-19T15:36:56;12.23;;;3.17;;
54171;SDS011;40076;52.354;4.970;2023-09-19T15:39:21;14.60;;;3.92;;
54171;SDS011;40076;52.354;4.970;2023-09-19T15:41:49;12.70;;;3.17;;
54171;SDS011;40076;52.354;4.970;2023-09-19T15:44:27;10.10;;;3.10;;
54171;SDS011;40076;52.354;4.970;2023-09-19T15:47:17;11.55;;;3.22;;
54171;SDS011;40076;52.354;4.970;2023-09-19T15:49:42;13.88;;;2.90;;
54171;SDS011;40076;52.354;4.970;2023-09-19T15:52:10;16.63;;;3.45;;
54171;SDS011;40076;52.354;4.970;2023-09-19T15:54:38;11.38;;;3.50;;
54171;SDS011;40076;52.354;4.970;2023-09-19T15:57:08;10.63;;;3.53;;
54171;SDS011;40076;52.354;4.970;2023-09-19T15:59:44;13.20;;;3.60;;
54171;SDS011;40076;52.354;4.970;2023-09-19T16:02:11;15.60;;;4.63;;
54171;SDS011;40076;52.354;4.970;2023-09-19T16:04:39;14.82;;;3.60;;
54171;SDS011;40076;52.354;4.970;2023-09-19T16:07:05;12.73;;;3.60;;
54171;SDS011;40076;52.354;4.970;2023-09-19T16:09:31;18.05;;;3.50;;
54171;SDS011;40076;52.354;4.970;2023-09-19T16:11:57;15.05;;;3.80;;
54171;SDS011;40076;52.354;4.970;2023-09-19T16:14:22;10.13;;;3.40;;
54171;SDS011;40076;52.354;4.970;2023-09-19T16:16:47;12.82;;;3.20;;
54171;SDS011;40076;52.354;4.970;2023-09-19T16:19:15;10.77;;;3.05;;
54171;SDS011;40076;52.354;4.970;2023-09-19T16:21:45;16.15;;;4.47;;
54171;SDS011;40076;52.354;4.970;2023-09-19T16:24:12;17.23;;;3.67;;
54171;SDS011;40076;52.354;4.970;2023-09-19T16:26:38;13.55;;;3.53;;
54171;SDS011;40076;52.354;4.970;2023-09-19T16:29:03;10.57;;;3.70;;
54171;SDS011;40076;52.354;4.970;2023-09-19T16:31:29;10.45;;;4.13;;
54171;SDS011;40076;52.354;4.970;2023-09-19T16:33:56;11.65;;;4.10;;
54171;SDS011;40076;52.354;4.970;2023-09-19T16:36:22;13.10;;;4.25;;
54171;SDS011;40076;52.354;4.970;2023-09-19T16:38:51;18.48;;;6.10;;
54171;SDS011;40076;52.354;4.970;2023-09-19T16:41:33;16.48;;;5.20;;
54171;SDS011;40076;52.354;4.970;2023-09-19T16:43:59;13.52;;;4.50;;
54171;SDS011;40076;52.354;4.970;2023-09-19T16:46:32;13.65;;;4.32;;
54171;SDS011;40076;52.354;4.970;2023-09-19T16:49:01;10.85;;;4.65;;
54171;SDS011;40076;52.354;4.970;2023-09-19T16:51:29;9.80;;;3.83;;
54171;SDS011;40076;52.354;4.970;2023-09-19T16:53:56;11.98;;;3.72;;
54171;SDS011;40076;52.354;4.970;2023-09-19T16:56:31;16.45;;;3.97;;
54171;SDS011;40076;52.354;4.970;2023-09-19T16:59:00;10.90;;;3.35;;
54171;SDS011;40076;52.354;4.970;2023-09-19T17:01:29;12.45;;;3.40;;
54171;SDS011;40076;52.354;4.970;2023-09-19T17:03:58;14.13;;;3.55;;
54171;SDS011;40076;52.354;4.970;2023-09-19T17:06:26;14.43;;;3.55;;
54171;SDS011;40076;52.354;4.970;2023-09-19T17:09:14;15.05;;;3.97;;
54171;SDS011;40076;52.354;4.970;2023-09-19T17:11:43;15.40;;;3.67;;
54171;SDS011;40076;52.354;4.970;2023-09-19T17:14:11;12.18;;;3.22;;
54171;SDS011;40076;52.354;4.970;2023-09-19T17:16:36;12.93;;;3.83;;
54171;SDS011;40076;52.354;4.970;2023-09-19T17:19:05;14.85;;;3.67;;
54171;SDS011;40076;52.354;4.970;2023-09-19T17:21:31;13.88;;;4.32;;